sensor_id;sensor_type;location;lat;lon;timestamp;P1;durP1;ratioP1;P2;durP2;ratioP2
7173;SDS011;3628;48.654;8.932;2024-03-23T00:54:14;4.03;;;2.50;;
7173;SDS011;3628;48.654;8.932;2024-03-23T00:56:40;5.87;;;2.70;;
7173;SDS011;3628;48.654;8.932;2024-03-23T00:59:06;2.43;;;2.20;;
7173;SDS011;3628;48.654;8.932;2024-03-23T01:01:31;5.40;;;2.50;;
7173;SDS011;3628;48.654;8.932;2024-03-23T01:03:57;3.17;;;2.30;;
7173;SDS011;3628;48.654;8.932;2024-03-23T01:06:22;3.67;;;2.43;;
7173;SDS011;3628;48.654;8.932;2024-03-23T01:08:48;5.03;;;2.30;;
7173;SDS011;3628;48.654;8.932;2024-03-23T01:11:13;3.20;;;2.10;;
7173;SDS011;3628;48.654;8.932;2024-03-23T01:13:39;2.33;;;1.97;;
7173;SDS011;3628;48.654;8.932;2024-03-23T01:16:05;3.33;;;2.40;;
7173;SDS011;3628;48.654;8.932;2024-03-23T01:18:30;3.37;;;2.30;;
7173;SDS011;3628;48.654;8.932;2024-03-23T01:20:56;5.93;;;2.50;;
7173;SDS011;3628;48.654;8.932;2024-03-23T01:23:21;3.03;;;2.03;;
7173;SDS011;3628;48.654;8.932;2024-03-23T01:25:53;2.17;;;1.83;;
7173;SDS011;3628;48.654;8.932;2024-03-23T01:28:19;3.30;;;1.90;;
7173;SDS011;3628;48.654;8.932;2024-03-23T01:30:45;3.00;;;2.07;;
7173;SDS011;3628;48.654;8.932;2024-03-23T01:33:11;2.17;;;1.73;;
7173;SDS011;3628;48.654;8.932;2024-03-23T01:35:37;4.43;;;2.17;;
7173;SDS011;3628;48.654;8.932;2024-03-23T01:38:02;1.80;;;1.67;;
7173;SDS011;3628;48.654;8.932;2024-03-23T01:40:28;4.27;;;1.77;;
7173;SDS011;3628;48.654;8.932;2024-03-23T01:43:04;4.23;;;1.70;;
7173;SDS011;3628;48.654;8.932;2024-03-23T01:45:32;2.40;;;2.10;;
7173;SDS011;3628;48.654;8.932;2024-03-23T01:47:58;5.43;;;2.07;;
7173;SDS011;3628;48.654;8.932;2024-03-23T01:50:24;2.00;;;1.80;;
7173;SDS011;3628;48.654;8.932;2024-03-23T01:52:51;2.20;;;1.70;;
7173;SDS011;3628;48.654;8.932;2024-03-23T01:55:16;2.23;;;1.60;;
7173;SDS011;3628;48.654;8.932;2024-03-23T01:57:42;2.23;;;1.70;;
7173;SDS011;3628;48.654;8.932;2024-03-23T02:00:08;2.67;;;1.90;;
7173;SDS011;3628;48.654;8.932;2024-03-23T02:02:35;2.30;;;1.90;;
7173;SDS011;3628;48.654;8.932;2024-03-23T02:05:00;2.80;;;1.80;;
7173;SDS011;3628;48.654;8.932;2024-03-23T02:07:26;3.40;;;1.73;;
7173;SDS011;3628;48.654;8.932;2024-03-23T02:09:52;2.50;;;1.80;;
7173;SDS011;3628;48.654;8.932;2024-03-23T02:12:18;4.43;;;2.13;;
7173;SDS011;3628;48.654;8.932;2024-03-23T02:14:44;1.60;;;1.50;;
7173;SDS011;3628;48.654;8.932;2024-03-23T02:17:09;2.60;;;1.43;;
7173;SDS011;3628;48.654;8.932;2024-03-23T02:19:35;1.70;;;1.50;;
7173;SDS011;3628;48.654;8.932;2024-03-23T02:22:00;2.90;;;1.80;;
7173;SDS011;3628;48.654;8.932;2024-03-23T02:24:26;1.97;;;1.80;;
7173;SDS011;3628;48.654;8.932;2024-03-23T02:26:51;2.47;;;1.53;;
7173;SDS011;3628;48.654;8.932;2024-03-23T02:29:17;3.67;;;1.60;;
7173;SDS011;3628;48.654;8.932;2024-03-23T02:31:44;2.70;;;1.40;;
7173;SDS011;3628;48.654;8.932;2024-03-23T02:34:10;3.27;;;1.83;;
7173;SDS011;3628;48.654;8.932;2024-03-23T02:36:35;3.03;;;1.67;;
7173;SDS011;3628;48.654;8.932;2024-03-23T02:39:01;1.77;;;1.50;;
7173;SDS011;3628;48.654;8.932;2024-03-23T02:41:26;2.00;;;1.40;;
7173;SDS011;3628;48.654;8.932;2024-03-23T02:43:52;2.07;;;1.60;;
7173;SDS011;3628;48.654;8.932;2024-03-23T02:46:17;2.37;;;1.50;;
7173;SDS011;3628;48.654;8.932;2024-03-23T02:48:43;3.33;;;1.80;;
7173;SDS011;3628;48.654;8.932;2024-03-23T02:51:09;4.30;;;1.73;;
7173;SDS011;3628;48.654;8.932;2024-03-23T02:53:34;2.87;;;1.40;;
7173;SDS011;3628;48.654;8.932;2024-03-23T02:56:00;2.17;;;1.63;;
7173;SDS011;3628;48.654;8.932;2024-03-23T02:58:25;1.50;;;1.40;;
7173;SDS011;3628;48.654;8.932;2024-03-23T03:00:51;1.87;;;1.57;;
7173;SDS011;3628;48.654;8.932;2024-03-23T03:03:16;3.23;;;1.63;;
7173;SDS011;3628;48.654;8.932;2024-03-23T03:05:42;1.63;;;1.40;;
7173;SDS011;3628;48.654;8.932;2024-03-23T03:08:07;3.13;;;2.00;;
7173;SDS011;3628;48.654;8.932;2024-03-23T03:10:33;2.00;;;1.70;;
7173;SDS011;3628;48.654;8.932;2024-03-23T03:13:01;3.27;;;1.90;;
7173;SDS011;3628;48.654;8.932;2024-03-23T03:15:27;2.73;;;1.80;;
7173;SDS011;3628;48.654;8.932;2024-03-23T03:17:52;2.63;;;1.60;;
7173;SDS011;3628;48.654;8.932;2024-03-23T03:20:18;3.77;;;1.90;;
7173;SDS011;3628;48.654;8.932;2024-03-23T03:22:44;2.87;;;1.83;;
7173;SDS011;3628;48.654;8.932;2024-03-23T03:25:09;2.23;;;1.97;;
7173;SDS011;3628;48.654;8.932;2024-03-23T03:27:35;2.10;;;1.90;;
7173;SDS011;3628;48.654;8.932;2024-03-23T03:30:01;1.83;;;1.40;;
7173;SDS011;3628;48.654;8.932;2024-03-23T03:32:28;2.07;;;1.70;;
7173;SDS011;3628;48.654;8.932;2024-03-23T03:34:54;4.37;;;1.83;;
7173;SDS011;3628;48.654;8.932;2024-03-23T03:37:19;1.80;;;1.67;;
7173;SDS011;3628;48.654;8.932;2024-03-23T03:39:45;6.63;;;1.80;;
7173;SDS011;3628;48.654;8.932;2024-03-23T03:42:11;3.17;;;2.00;;
7173;SDS011;3628;48.654;8.932;2024-03-23T03:44:36;3.53;;;1.70;;
7173;SDS011;3628;48.654;8.932;2024-03-23T03:47:02;3.37;;;1.70;;
7173;SDS011;3628;48.654;8.932;2024-03-23T03:49:27;2.20;;;1.80;;
7173;SDS011;3628;48.654;8.932;2024-03-23T03:51:53;3.27;;;1.93;;
7173;SDS011;3628;48.654;8.932;2024-03-23T03:54:18;1.97;;;1.77;;
7173;SDS011;3628;48.654;8.932;2024-03-23T03:56:44;2.90;;;1.80;;
7173;SDS011;3628;48.654;8.932;2024-03-23T03:59:09;4.70;;;1.50;;
7173;SDS011;3628;48.654;8.932;2024-03-23T04:01:35;2.47;;;1.70;;
7173;SDS011;3628;48.654;8.932;2024-03-23T04:04:00;2.57;;;1.60;;
7173;SDS011;3628;48.654;8.932;2024-03-23T04:06:26;2.63;;;1.80;;
7173;SDS011;3628;48.654;8.932;2024-03-23T04:08:52;2.30;;;1.60;;
7173;SDS011;3628;48.654;8.932;2024-03-23T04:11:17;2.30;;;1.97;;
7173;SDS011;3628;48.654;8.932;2024-03-23T04:13:43;1.80;;;1.53;;
7173;SDS011;3628;48.654;8.932;2024-03-23T04:16:08;2.77;;;1.93;;
7173;SDS011;3628;48.654;8.932;2024-03-23T04:18:34;3.17;;;1.77;;
7173;SDS011;3628;48.654;8.932;2024-03-23T04:21:00;2.57;;;1.70;;
7173;SDS011;3628;48.654;8.932;2024-03-23T04:23:26;2.07;;;1.70;;
7173;SDS011;3628;48.654;8.932;2024-03-23T04:25:51;1.90;;;1.70;;
7173;SDS011;3628;48.654;8.932;2024-03-23T04:28:18;3.87;;;1.90;;
7173;SDS011;3628;48.654;8.932;2024-03-23T04:30:44;5.37;;;1.43;;
7173;SDS011;3628;48.654;8.932;2024-03-23T04:33:09;2.73;;;1.60;;
7173;SDS011;3628;48.654;8.932;2024-03-23T04:35:35;3.40;;;1.80;;
7173;SDS011;3628;48.654;8.932;2024-03-23T04:38:01;2.03;;;1.70;;
7173;SDS011;3628;48.654;8.932;2024-03-23T04:40:26;1.80;;;1.50;;
7173;SDS011;3628;48.654;8.932;2024-03-23T04:42:52;4.37;;;2.10;;
7173;SDS011;3628;48.654;8.932;2024-03-23T04:45:17;2.83;;;1.80;;
7173;SDS011;3628;48.654;8.932;2024-03-23T04:47:43;1.87;;;1.60;;
7173;SDS011;3628;48.654;8.932;2024-03-23T04:50:08;2.40;;;2.00;;
7173;SDS011;3628;48.654;8.932;2024-03-23T04:52:35;2.10;;;1.80;;
7173;SDS011;3628;48.654;8.932;2024-03-23T04:55:01;4.43;;;1.73;;
7173;SDS011;3628;48.654;8.932;2024-03-23T04:57:27;3.17;;;2.00;;
7173;SDS011;3628;48.654;8.932;2024-03-23T04:59:52;2.13;;;1.60;;
7173;SDS011;3628;48.654;8.932;2024-03-23T05:02:18;4.40;;;2.20;;
7173;SDS011;3628;48.654;8.932;2024-03-23T05:04:43;4.73;;;2.93;;
7173;SDS011;3628;48.654;8.932;2024-03-23T05:07:09;4.90;;;2.70;;
7173;SDS011;3628;48.654;8.932;2024-03-23T05:09:34;4.17;;;2.90;;
7173;SDS011;3628;48.654;8.932;2024-03-23T05:12:00;3.73;;;3.00;;
7173;SDS011;3628;48.654;8.932;2024-03-23T05:14:26;5.03;;;3.60;;
7173;SDS011;3628;48.654;8.932;2024-03-23T05:16:51;4.57;;;4.17;;
7173;SDS011;3628;48.654;8.932;2024-03-23T05:19:17;5.60;;;4.97;;
7173;SDS011;3628;48.654;8.932;2024-03-23T05:21:43;5.73;;;5.03;;
7173;SDS011;3628;48.654;8.932;2024-03-23T05:24:09;6.07;;;4.93;;
7173;SDS011;3628;48.654;8.932;2024-03-23T05:26:35;6.90;;;5.00;;
7173;SDS011;3628;48.654;8.932;2024-03-23T05:29:00;6.80;;;5.00;;
7173;SDS011;3628;48.654;8.932;2024-03-23T05:31:27;5.00;;;4.50;;
7173;SDS011;3628;48.654;8.932;2024-03-23T05:33:53;4.80;;;4.03;;
7173;SDS011;3628;48.654;8.932;2024-03-23T05:36:19;5.03;;;4.27;;
7173;SDS011;3628;48.654;8.932;2024-03-23T05:38:45;4.47;;;3.97;;
7173;SDS011;3628;48.654;8.932;2024-03-23T05:41:10;4.70;;;3.90;;
7173;SDS011;3628;48.654;8.932;2024-03-23T05:43:36;4.37;;;3.67;;
7173;SDS011;3628;48.654;8.932;2024-03-23T05:46:01;4.07;;;3.47;;
7173;SDS011;3628;48.654;8.932;2024-03-23T05:48:27;3.97;;;3.57;;
7173;SDS011;3628;48.654;8.932;2024-03-23T05:50:55;4.40;;;3.43;;
7173;SDS011;3628;48.654;8.932;2024-03-23T05:53:20;3.70;;;3.20;;
7173;SDS011;3628;48.654;8.932;2024-03-23T05:55:46;3.13;;;2.87;;
7173;SDS011;3628;48.654;8.932;2024-03-23T05:58:15;2.60;;;2.33;;
7173;SDS011;3628;48.654;8.932;2024-03-23T06:00:42;2.40;;;2.00;;
7173;SDS011;3628;48.654;8.932;2024-03-23T06:03:08;2.53;;;1.93;;
7173;SDS011;3628;48.654;8.932;2024-03-23T06:05:35;2.93;;;1.90;;
7173;SDS011;3628;48.654;8.932;2024-03-23T06:08:00;1.70;;;1.60;;
7173;SDS011;3628;48.654;8.932;2024-03-23T06:10:26;1.40;;;1.30;;
7173;SDS011;3628;48.654;8.932;2024-03-23T06:12:51;1.97;;;1.30;;
7173;SDS011;3628;48.654;8.932;2024-03-23T06:15:20;2.10;;;1.47;;
7173;SDS011;3628;48.654;8.932;2024-03-23T06:17:47;1.40;;;1.30;;
7173;SDS011;3628;48.654;8.932;2024-03-23T06:20:13;1.50;;;1.10;;
7173;SDS011;3628;48.654;8.932;2024-03-23T06:22:38;1.10;;;1.00;;
7173;SDS011;3628;48.654;8.932;2024-03-23T06:25:04;0.80;;;0.80;;
7173;SDS011;3628;48.654;8.932;2024-03-23T06:27:30;1.30;;;0.87;;
7173;SDS011;3628;48.654;8.932;2024-03-23T06:29:57;0.83;;;0.80;;
7173;SDS011;3628;48.654;8.932;2024-03-23T06:32:23;0.60;;;0.57;;
7173;SDS011;3628;48.654;8.932;2024-03-23T06:34:48;0.70;;;0.70;;
7173;SDS011;3628;48.654;8.932;2024-03-23T06:37:14;0.70;;;0.70;;
7173;SDS011;3628;48.654;8.932;2024-03-23T06:39:39;0.70;;;0.70;;
7173;SDS011;3628;48.654;8.932;2024-03-23T06:42:05;0.70;;;0.70;;
7173;SDS011;3628;48.654;8.932;2024-03-23T06:44:30;0.67;;;0.40;;
7173;SDS011;3628;48.654;8.932;2024-03-23T06:46:57;0.30;;;0.30;;
7173;SDS011;3628;48.654;8.932;2024-03-23T06:49:23;2.47;;;0.40;;
7173;SDS011;3628;48.654;8.932;2024-03-23T06:51:48;0.30;;;0.30;;
7173;SDS011;3628;48.654;8.932;2024-03-23T06:54:14;0.40;;;0.40;;
7173;SDS011;3628;48.654;8.932;2024-03-23T06:56:41;0.20;;;0.20;;
7173;SDS011;3628;48.654;8.932;2024-03-23T06:59:07;1.13;;;0.30;;
7173;SDS011;3628;48.654;8.932;2024-03-23T07:01:32;0.20;;;0.20;;
7173;SDS011;3628;48.654;8.932;2024-03-23T07:03:58;0.27;;;0.20;;
7173;SDS011;3628;48.654;8.932;2024-03-23T07:06:23;0.40;;;0.30;;
7173;SDS011;3628;48.654;8.932;2024-03-23T07:08:49;0.20;;;0.20;;
7173;SDS011;3628;48.654;8.932;2024-03-23T07:11:18;0.70;;;0.30;;
7173;SDS011;3628;48.654;8.932;2024-03-23T07:13:45;0.90;;;0.30;;
7173;SDS011;3628;48.654;8.932;2024-03-23T07:16:10;0.03;;;0.03;;
7173;SDS011;3628;48.654;8.932;2024-03-23T07:18:36;0.10;;;0.10;;
7173;SDS011;3628;48.654;8.932;2024-03-23T07:21:01;0.00;;;0.00;;
7173;SDS011;3628;48.654;8.932;2024-03-23T07:23:28;0.10;;;0.10;;
7173;SDS011;3628;48.654;8.932;2024-03-23T07:26:12;0.07;;;0.00;;
7173;SDS011;3628;48.654;8.932;2024-03-23T07:28:37;0.20;;;0.20;;
7173;SDS011;3628;48.654;8.932;2024-03-23T07:31:08;0.07;;;0.07;;
7173;SDS011;3628;48.654;8.932;2024-03-23T07:33:41;0.10;;;0.10;;
7173;SDS011;3628;48.654;8.932;2024-03-23T07:36:10;0.20;;;0.20;;
7173;SDS011;3628;48.654;8.932;2024-03-23T07:38:36;0.30;;;0.30;;
7173;SDS011;3628;48.654;8.932;2024-03-23T07:41:02;0.10;;;0.10;;
7173;SDS011;3628;48.654;8.932;2024-03-23T07:43:31;0.60;;;0.20;;
7173;SDS011;3628;48.654;8.932;2024-03-23T07:45:57;0.03;;;0.03;;
7173;SDS011;3628;48.654;8.932;2024-03-23T07:48:22;0.20;;;0.10;;
7173;SDS011;3628;48.654;8.932;2024-03-23T07:50:58;0.20;;;0.13;;
7173;SDS011;3628;48.654;8.932;2024-03-23T07:53:31;0.10;;;0.10;;
7173;SDS011;3628;48.654;8.932;2024-03-23T07:55:58;0.10;;;0.10;;
7173;SDS011;3628;48.654;8.932;2024-03-23T07:58:26;0.10;;;0.10;;
7173;SDS011;3628;48.654;8.932;2024-03-23T08:00:52;0.10;;;0.10;;
7173;SDS011;3628;48.654;8.932;2024-03-23T08:03:18;0.17;;;0.17;;
7173;SDS011;3628;48.654;8.932;2024-03-23T08:05:44;0.10;;;0.10;;
7173;SDS011;3628;48.654;8.932;2024-03-23T08:08:09;0.07;;;0.00;;
7173;SDS011;3628;48.654;8.932;2024-03-23T08:10:36;0.10;;;0.10;;
7173;SDS011;3628;48.654;8.932;2024-03-23T08:13:02;0.13;;;0.13;;
7173;SDS011;3628;48.654;8.932;2024-03-23T08:15:29;0.57;;;0.20;;
7173;SDS011;3628;48.654;8.932;2024-03-23T08:17:57;0.10;;;0.10;;
7173;SDS011;3628;48.654;8.932;2024-03-23T08:20:24;0.10;;;0.10;;
7173;SDS011;3628;48.654;8.932;2024-03-23T08:22:49;0.33;;;0.30;;
7173;SDS011;3628;48.654;8.932;2024-03-23T08:25:15;0.20;;;0.20;;
7173;SDS011;3628;48.654;8.932;2024-03-23T08:27:41;0.60;;;0.30;;
7173;SDS011;3628;48.654;8.932;2024-03-23T08:30:09;0.30;;;0.30;;
7173;SDS011;3628;48.654;8.932;2024-03-23T08:32:34;1.43;;;0.60;;
7173;SDS011;3628;48.654;8.932;2024-03-23T08:35:00;1.83;;;1.00;;
7173;SDS011;3628;48.654;8.932;2024-03-23T08:37:25;1.03;;;0.70;;
7173;SDS011;3628;48.654;8.932;2024-03-23T08:39:52;1.27;;;1.00;;
7173;SDS011;3628;48.654;8.932;2024-03-23T08:42:18;1.03;;;0.70;;
7173;SDS011;3628;48.654;8.932;2024-03-23T08:44:43;1.73;;;0.83;;
7173;SDS011;3628;48.654;8.932;2024-03-23T08:47:11;4.00;;;1.03;;
7173;SDS011;3628;48.654;8.932;2024-03-23T08:49:37;0.77;;;0.60;;
7173;SDS011;3628;48.654;8.932;2024-03-23T08:52:02;1.00;;;0.80;;
7173;SDS011;3628;48.654;8.932;2024-03-23T08:54:28;1.90;;;0.80;;
7173;SDS011;3628;48.654;8.932;2024-03-23T08:56:56;1.13;;;0.80;;
7173;SDS011;3628;48.654;8.932;2024-03-23T08:59:21;3.07;;;1.30;;
7173;SDS011;3628;48.654;8.932;2024-03-23T09:01:48;2.60;;;1.27;;
7173;SDS011;3628;48.654;8.932;2024-03-23T09:04:14;3.37;;;1.50;;
7173;SDS011;3628;48.654;8.932;2024-03-23T09:06:41;2.10;;;1.20;;
7173;SDS011;3628;48.654;8.932;2024-03-23T09:09:53;4.53;;;2.10;;
7173;SDS011;3628;48.654;8.932;2024-03-23T09:12:19;2.70;;;1.50;;
7173;SDS011;3628;48.654;8.932;2024-03-23T09:14:44;1.50;;;1.40;;
7173;SDS011;3628;48.654;8.932;2024-03-23T09:17:10;3.77;;;1.70;;
7173;SDS011;3628;48.654;8.932;2024-03-23T09:19:35;4.93;;;1.80;;
7173;SDS011;3628;48.654;8.932;2024-03-23T09:22:01;2.97;;;1.80;;
7173;SDS011;3628;48.654;8.932;2024-03-23T09:24:26;3.03;;;1.77;;
7173;SDS011;3628;48.654;8.932;2024-03-23T09:26:52;3.70;;;1.80;;
7173;SDS011;3628;48.654;8.932;2024-03-23T09:29:17;3.63;;;2.07;;
7173;SDS011;3628;48.654;8.932;2024-03-23T09:31:43;3.37;;;1.50;;
7173;SDS011;3628;48.654;8.932;2024-03-23T09:34:08;3.27;;;1.70;;
7173;SDS011;3628;48.654;8.932;2024-03-23T09:36:34;4.10;;;1.80;;
7173;SDS011;3628;48.654;8.932;2024-03-23T09:38:59;4.63;;;1.80;;
7173;SDS011;3628;48.654;8.932;2024-03-23T09:41:25;2.50;;;1.47;;
7173;SDS011;3628;48.654;8.932;2024-03-23T09:43:53;4.17;;;1.90;;
7173;SDS011;3628;48.654;8.932;2024-03-23T09:46:19;5.30;;;2.17;;
7173;SDS011;3628;48.654;8.932;2024-03-23T09:48:46;3.73;;;1.70;;
7173;SDS011;3628;48.654;8.932;2024-03-23T09:51:12;3.50;;;2.03;;
7173;SDS011;3628;48.654;8.932;2024-03-23T09:53:38;4.50;;;2.00;;
7173;SDS011;3628;48.654;8.932;2024-03-23T09:56:04;3.40;;;1.80;;
7173;SDS011;3628;48.654;8.932;2024-03-23T09:58:29;6.00;;;1.50;;
7173;SDS011;3628;48.654;8.932;2024-03-23T10:00:57;3.90;;;1.83;;
7173;SDS011;3628;48.654;8.932;2024-03-23T10:03:22;3.03;;;1.90;;
7173;SDS011;3628;48.654;8.932;2024-03-23T10:05:48;1.70;;;1.60;;
7173;SDS011;3628;48.654;8.932;2024-03-23T10:08:30;5.40;;;2.00;;
7173;SDS011;3628;48.654;8.932;2024-03-23T10:10:56;3.00;;;2.10;;
7173;SDS011;3628;48.654;8.932;2024-03-23T10:13:25;4.17;;;1.70;;
7173;SDS011;3628;48.654;8.932;2024-03-23T10:15:55;4.27;;;2.20;;
7173;SDS011;3628;48.654;8.932;2024-03-23T10:18:22;5.10;;;1.70;;
7173;SDS011;3628;48.654;8.932;2024-03-23T10:20:50;3.57;;;1.73;;
7173;SDS011;3628;48.654;8.932;2024-03-23T10:23:32;6.20;;;2.27;;
7173;SDS011;3628;48.654;8.932;2024-03-23T10:26:14;6.23;;;1.90;;
7173;SDS011;3628;48.654;8.932;2024-03-23T10:28:55;2.60;;;1.47;;
7173;SDS011;3628;48.654;8.932;2024-03-23T10:31:26;7.10;;;2.00;;
7173;SDS011;3628;48.654;8.932;2024-03-23T10:33:52;6.20;;;2.40;;
7173;SDS011;3628;48.654;8.932;2024-03-23T10:36:21;5.43;;;2.33;;
7173;SDS011;3628;48.654;8.932;2024-03-23T10:38:47;2.17;;;1.57;;
7173;SDS011;3628;48.654;8.932;2024-03-23T10:41:14;3.30;;;1.20;;
7173;SDS011;3628;48.654;8.932;2024-03-23T10:43:40;1.80;;;0.80;;
7173;SDS011;3628;48.654;8.932;2024-03-23T10:46:05;2.23;;;1.20;;
7173;SDS011;3628;48.654;8.932;2024-03-23T10:48:32;2.17;;;1.00;;
7173;SDS011;3628;48.654;8.932;2024-03-23T10:50:57;1.23;;;0.87;;
7173;SDS011;3628;48.654;8.932;2024-03-23T10:53:25;2.13;;;1.10;;
7173;SDS011;3628;48.654;8.932;2024-03-23T10:55:53;2.20;;;1.30;;
7173;SDS011;3628;48.654;8.932;2024-03-23T10:58:28;1.97;;;1.40;;
7173;SDS011;3628;48.654;8.932;2024-03-23T11:01:02;2.33;;;1.00;;
7173;SDS011;3628;48.654;8.932;2024-03-23T11:03:34;1.70;;;1.13;;
7173;SDS011;3628;48.654;8.932;2024-03-23T11:06:01;2.00;;;1.27;;
7173;SDS011;3628;48.654;8.932;2024-03-23T11:08:35;1.93;;;1.20;;
7173;SDS011;3628;48.654;8.932;2024-03-23T11:13:42;4.03;;;1.07;;
7173;SDS011;3628;48.654;8.932;2024-03-23T11:16:21;2.33;;;1.00;;
7173;SDS011;3628;48.654;8.932;2024-03-23T11:18:49;1.83;;;0.97;;
7173;SDS011;3628;48.654;8.932;2024-03-23T11:21:51;2.97;;;1.10;;
7173;SDS011;3628;48.654;8.932;2024-03-23T11:24:18;1.83;;;1.00;;
7173;SDS011;3628;48.654;8.932;2024-03-23T11:26:45;1.87;;;1.00;;
7173;SDS011;3628;48.654;8.932;2024-03-23T11:29:12;1.50;;;0.77;;
7173;SDS011;3628;48.654;8.932;2024-03-23T11:31:44;4.17;;;1.00;;
7173;SDS011;3628;48.654;8.932;2024-03-23T11:34:11;1.47;;;0.87;;
7173;SDS011;3628;48.654;8.932;2024-03-23T11:36:37;2.07;;;0.90;;
7173;SDS011;3628;48.654;8.932;2024-03-23T11:39:12;3.93;;;0.83;;
7173;SDS011;3628;48.654;8.932;2024-03-23T11:42:03;2.27;;;0.70;;
7173;SDS011;3628;48.654;8.932;2024-03-23T11:44:29;1.90;;;0.80;;
7173;SDS011;3628;48.654;8.932;2024-03-23T11:46:54;1.47;;;0.83;;
7173;SDS011;3628;48.654;8.932;2024-03-23T11:49:32;1.80;;;0.90;;
7173;SDS011;3628;48.654;8.932;2024-03-23T11:51:58;2.53;;;1.03;;
7173;SDS011;3628;48.654;8.932;2024-03-23T11:54:26;3.13;;;0.90;;
7173;SDS011;3628;48.654;8.932;2024-03-23T11:56:55;2.43;;;1.00;;
7173;SDS011;3628;48.654;8.932;2024-03-23T12:01:57;3.43;;;1.07;;
7173;SDS011;3628;48.654;8.932;2024-03-23T12:04:29;3.53;;;1.10;;
7173;SDS011;3628;48.654;8.932;2024-03-23T12:09:41;4.13;;;1.30;;
7173;SDS011;3628;48.654;8.932;2024-03-23T12:14:39;3.37;;;1.30;;
7173;SDS011;3628;48.654;8.932;2024-03-23T12:17:14;7.10;;;1.93;;
7173;SDS011;3628;48.654;8.932;2024-03-23T12:19:40;3.47;;;1.27;;
7173;SDS011;3628;48.654;8.932;2024-03-23T12:22:07;5.40;;;1.73;;
7173;SDS011;3628;48.654;8.932;2024-03-23T12:24:33;3.10;;;1.13;;
7173;SDS011;3628;48.654;8.932;2024-03-23T12:27:00;2.67;;;1.40;;
7173;SDS011;3628;48.654;8.932;2024-03-23T12:29:29;5.23;;;1.60;;
7173;SDS011;3628;48.654;8.932;2024-03-23T12:31:58;7.50;;;1.67;;
7173;SDS011;3628;48.654;8.932;2024-03-23T12:34:25;5.53;;;1.80;;
7173;SDS011;3628;48.654;8.932;2024-03-23T12:36:50;5.33;;;1.50;;
7173;SDS011;3628;48.654;8.932;2024-03-23T12:39:16;5.23;;;1.73;;
7173;SDS011;3628;48.654;8.932;2024-03-23T12:41:41;7.40;;;1.73;;
7173;SDS011;3628;48.654;8.932;2024-03-23T12:44:07;5.27;;;1.47;;
7173;SDS011;3628;48.654;8.932;2024-03-23T12:46:34;3.90;;;1.33;;
7173;SDS011;3628;48.654;8.932;2024-03-23T12:48:59;5.70;;;1.67;;
7173;SDS011;3628;48.654;8.932;2024-03-23T12:51:25;2.27;;;1.30;;
7173;SDS011;3628;48.654;8.932;2024-03-23T12:53:51;9.33;;;1.70;;
7173;SDS011;3628;48.654;8.932;2024-03-23T12:56:16;2.90;;;1.40;;
7173;SDS011;3628;48.654;8.932;2024-03-23T12:58:42;4.13;;;1.43;;
7173;SDS011;3628;48.654;8.932;2024-03-23T13:01:07;3.97;;;1.30;;
7173;SDS011;3628;48.654;8.932;2024-03-23T13:03:33;2.23;;;0.53;;
7173;SDS011;3628;48.654;8.932;2024-03-23T13:05:58;1.20;;;0.60;;
7173;SDS011;3628;48.654;8.932;2024-03-23T13:08:24;5.30;;;0.77;;
7173;SDS011;3628;48.654;8.932;2024-03-23T13:10:52;4.43;;;0.90;;
7173;SDS011;3628;48.654;8.932;2024-03-23T13:13:18;0.87;;;0.70;;
7173;SDS011;3628;48.654;8.932;2024-03-23T13:15:49;1.83;;;0.47;;
7173;SDS011;3628;48.654;8.932;2024-03-23T13:18:15;1.93;;;0.43;;
7173;SDS011;3628;48.654;8.932;2024-03-23T13:20:40;2.93;;;0.70;;
7173;SDS011;3628;48.654;8.932;2024-03-23T13:23:06;4.27;;;0.50;;
7173;SDS011;3628;48.654;8.932;2024-03-23T13:25:32;3.37;;;0.57;;
7173;SDS011;3628;48.654;8.932;2024-03-23T13:27:58;6.70;;;0.80;;
7173;SDS011;3628;48.654;8.932;2024-03-23T13:30:24;2.57;;;0.80;;
7173;SDS011;3628;48.654;8.932;2024-03-23T13:32:49;6.73;;;2.27;;
7173;SDS011;3628;48.654;8.932;2024-03-23T13:35:15;4.40;;;1.27;;
7173;SDS011;3628;48.654;8.932;2024-03-23T13:37:41;4.33;;;0.60;;
7173;SDS011;3628;48.654;8.932;2024-03-23T13:40:06;1.63;;;1.20;;
7173;SDS011;3628;48.654;8.932;2024-03-23T13:42:33;5.87;;;1.20;;
7173;SDS011;3628;48.654;8.932;2024-03-23T13:44:58;5.53;;;1.37;;
7173;SDS011;3628;48.654;8.932;2024-03-23T13:47:24;5.50;;;1.67;;
7173;SDS011;3628;48.654;8.932;2024-03-23T13:49:49;1.83;;;0.90;;
7173;SDS011;3628;48.654;8.932;2024-03-23T13:52:15;5.97;;;1.20;;
7173;SDS011;3628;48.654;8.932;2024-03-23T13:54:41;9.83;;;1.57;;
7173;SDS011;3628;48.654;8.932;2024-03-23T13:57:11;2.00;;;0.90;;
7173;SDS011;3628;48.654;8.932;2024-03-23T13:59:37;2.77;;;0.80;;
7173;SDS011;3628;48.654;8.932;2024-03-23T14:02:02;3.80;;;1.10;;
7173;SDS011;3628;48.654;8.932;2024-03-23T14:04:28;3.73;;;0.80;;
7173;SDS011;3628;48.654;8.932;2024-03-23T14:06:54;7.73;;;0.87;;
7173;SDS011;3628;48.654;8.932;2024-03-23T14:09:19;9.13;;;1.47;;
7173;SDS011;3628;48.654;8.932;2024-03-23T14:11:50;2.00;;;0.57;;
7173;SDS011;3628;48.654;8.932;2024-03-23T14:14:16;3.77;;;0.70;;
7173;SDS011;3628;48.654;8.932;2024-03-23T14:16:42;6.13;;;1.10;;
7173;SDS011;3628;48.654;8.932;2024-03-23T14:19:08;1.57;;;0.73;;
7173;SDS011;3628;48.654;8.932;2024-03-23T14:21:34;2.27;;;0.67;;
7173;SDS011;3628;48.654;8.932;2024-03-23T14:23:59;0.73;;;0.40;;
7173;SDS011;3628;48.654;8.932;2024-03-23T14:26:26;1.80;;;0.40;;
7173;SDS011;3628;48.654;8.932;2024-03-23T14:28:51;1.30;;;0.40;;
7173;SDS011;3628;48.654;8.932;2024-03-23T14:31:17;1.43;;;0.50;;
7173;SDS011;3628;48.654;8.932;2024-03-23T14:33:43;2.33;;;0.70;;
7173;SDS011;3628;48.654;8.932;2024-03-23T14:36:14;1.80;;;0.37;;
7173;SDS011;3628;48.654;8.932;2024-03-23T14:38:41;1.60;;;0.30;;
7173;SDS011;3628;48.654;8.932;2024-03-23T14:41:07;1.73;;;0.63;;
7173;SDS011;3628;48.654;8.932;2024-03-23T14:43:33;3.23;;;0.83;;
7173;SDS011;3628;48.654;8.932;2024-03-23T14:46:08;1.30;;;0.53;;
7173;SDS011;3628;48.654;8.932;2024-03-23T14:48:41;1.17;;;0.40;;
7173;SDS011;3628;48.654;8.932;2024-03-23T14:51:09;1.40;;;0.80;;
7173;SDS011;3628;48.654;8.932;2024-03-23T14:53:35;1.77;;;0.60;;
7173;SDS011;3628;48.654;8.932;2024-03-23T14:56:03;2.27;;;0.87;;
7173;SDS011;3628;48.654;8.932;2024-03-23T14:58:29;3.60;;;1.33;;
7173;SDS011;3628;48.654;8.932;2024-03-23T15:03:27;2.23;;;0.63;;
7173;SDS011;3628;48.654;8.932;2024-03-23T15:05:56;2.17;;;0.60;;
7173;SDS011;3628;48.654;8.932;2024-03-23T15:08:23;2.80;;;0.63;;
7173;SDS011;3628;48.654;8.932;2024-03-23T15:10:49;2.03;;;0.40;;
7173;SDS011;3628;48.654;8.932;2024-03-23T15:13:15;1.67;;;0.70;;
7173;SDS011;3628;48.654;8.932;2024-03-23T15:15:41;1.00;;;0.40;;
7173;SDS011;3628;48.654;8.932;2024-03-23T15:18:11;0.67;;;0.40;;
7173;SDS011;3628;48.654;8.932;2024-03-23T15:20:37;2.27;;;0.70;;
7173;SDS011;3628;48.654;8.932;2024-03-23T15:23:03;1.40;;;1.00;;
7173;SDS011;3628;48.654;8.932;2024-03-23T15:25:29;1.80;;;1.33;;
7173;SDS011;3628;48.654;8.932;2024-03-23T15:27:55;1.50;;;0.63;;
7173;SDS011;3628;48.654;8.932;2024-03-23T15:30:22;1.17;;;0.87;;
7173;SDS011;3628;48.654;8.932;2024-03-23T15:32:48;4.40;;;1.20;;
7173;SDS011;3628;48.654;8.932;2024-03-23T15:35:13;1.17;;;0.60;;
7173;SDS011;3628;48.654;8.932;2024-03-23T15:37:39;1.60;;;1.17;;
7173;SDS011;3628;48.654;8.932;2024-03-23T15:40:06;3.50;;;0.83;;
7173;SDS011;3628;48.654;8.932;2024-03-23T15:42:32;3.97;;;0.67;;
7173;SDS011;3628;48.654;8.932;2024-03-23T15:44:57;2.93;;;0.70;;
7173;SDS011;3628;48.654;8.932;2024-03-23T15:47:23;0.83;;;0.50;;
7173;SDS011;3628;48.654;8.932;2024-03-23T15:49:49;1.60;;;0.60;;
7173;SDS011;3628;48.654;8.932;2024-03-23T15:52:15;1.70;;;0.57;;
7173;SDS011;3628;48.654;8.932;2024-03-23T15:54:40;0.33;;;0.33;;
7173;SDS011;3628;48.654;8.932;2024-03-23T15:57:08;0.10;;;0.10;;
7173;SDS011;3628;48.654;8.932;2024-03-23T15:59:33;1.13;;;0.37;;
7173;SDS011;3628;48.654;8.932;2024-03-23T16:01:59;0.40;;;0.30;;
7173;SDS011;3628;48.654;8.932;2024-03-23T16:04:24;1.80;;;0.60;;
7173;SDS011;3628;48.654;8.932;2024-03-23T16:06:50;1.03;;;0.40;;
7173;SDS011;3628;48.654;8.932;2024-03-23T16:09:15;0.87;;;0.43;;
7173;SDS011;3628;48.654;8.932;2024-03-23T16:11:41;0.97;;;0.60;;
7173;SDS011;3628;48.654;8.932;2024-03-23T16:14:07;2.07;;;0.50;;
7173;SDS011;3628;48.654;8.932;2024-03-23T16:16:32;0.30;;;0.30;;
7173;SDS011;3628;48.654;8.932;2024-03-23T16:18:58;0.83;;;0.40;;